sensor_id;sensor_type;location;lat;lon;timestamp;pressure;altitude;pressure_sealevel;temperature;humidity
63903;BME280;50072;50.678;13.938;2022-12-29T00:01:35;99255.13;;;1.03;100.00
63903;BME280;50072;50.678;13.938;2022-12-29T00:04:05;99265.66;;;1.00;99.76
63903;BME280;50072;50.678;13.938;2022-12-29T00:06:32;99277.03;;;0.96;100.00
63903;BME280;50072;50.678;13.938;2022-12-29T00:09:04;99277.03;;;0.99;100.00
63903;BME280;50072;50.678;13.938;2022-12-29T00:11:35;99260.31;;;0.97;100.00
63903;BME280;50072;50.678;13.938;2022-12-29T00:14:04;99253.31;;;0.93;100.00
63903;BME280;50072;50.678;13.938;2022-12-29T00:16:54;99255.13;;;1.05;100.00
63903;BME280;50072;50.678;13.938;2022-12-29T00:19:23;99251.59;;;1.04;100.00
63903;BME280;50072;50.678;13.938;2022-12-29T00:25:35;99236.78;;;1.23;100.00
63903;BME280;50072;50.678;13.938;2022-12-29T00:28:34;99231.53;;;1.31;99.13
63903;BME280;50072;50.678;13.938;2022-12-29T00:31:34;99240.31;;;1.28;99.20
63903;BME280;50072;50.678;13.938;2022-12-29T00:34:25;99229.81;;;1.33;98.96
63903;BME280;50072;50.678;13.938;2022-12-29T00:37:38;99231.53;;;1.31;98.88
63903;BME280;50072;50.678;13.938;2022-12-29T00:40:36;99229.81;;;1.33;98.59
63903;BME280;50072;50.678;13.938;2022-12-29T00:43:22;99230.69;;;1.40;98.23
63903;BME280;50072;50.678;13.938;2022-12-29T00:46:06;99229.84;;;1.41;98.05
63903;BME280;50072;50.678;13.938;2022-12-29T00:48:36;99227.25;;;1.48;97.88
63903;BME280;50072;50.678;13.938;2022-12-29T00:51:34;99230.78;;;1.53;97.61
63903;BME280;50072;50.678;13.938;2022-12-29T00:54:00;99225.50;;;1.47;97.79
63903;BME280;50072;50.678;13.938;2022-12-29T00:56:27;99233.41;;;1.53;97.46
63903;BME280;50072;50.678;13.938;2022-12-29T00:59:09;99231.66;;;1.52;98.05
63903;BME280;50072;50.678;13.938;2022-12-29T01:01:37;99229.06;;;1.59;97.83
63903;BME280;50072;50.678;13.938;2022-12-29T01:04:06;99221.16;;;1.60;97.69
63903;BME280;50072;50.678;13.938;2022-12-29T01:06:36;99229.00;;;1.51;97.77
63903;BME280;50072;50.678;13.938;2022-12-29T01:09:03;99218.38;;;1.34;97.93
63903;BME280;50072;50.678;13.938;2022-12-29T01:11:57;99228.91;;;1.28;98.48
63903;BME280;50072;50.678;13.938;2022-12-29T01:14:26;99227.16;;;1.30;98.80
63903;BME280;50072;50.678;13.938;2022-12-29T01:16:52;99220.16;;;1.38;98.46
63903;BME280;50072;50.678;13.938;2022-12-29T01:19:35;99216.72;;;1.51;98.26
63903;BME280;50072;50.678;13.938;2022-12-29T01:22:04;99213.22;;;1.60;98.13
63903;BME280;50072;50.678;13.938;2022-12-29T01:24:36;99212.38;;;1.69;97.90
63903;BME280;50072;50.678;13.938;2022-12-29T01:27:06;99212.38;;;1.69;97.73
63903;BME280;50072;50.678;13.938;2022-12-29T01:29:38;99217.66;;;1.73;97.39
63903;BME280;50072;50.678;13.938;2022-12-29T01:32:05;99203.59;;;1.75;97.49
63903;BME280;50072;50.678;13.938;2022-12-29T01:34:36;99201.81;;;1.69;97.62
63903;BME280;50072;50.678;13.938;2022-12-29T01:37:08;99201.88;;;1.80;97.32
63903;BME280;50072;50.678;13.938;2022-12-29T01:39:34;99197.47;;;1.80;97.56
63903;BME280;50072;50.678;13.938;2022-12-29T01:42:04;99201.88;;;1.92;97.97
63903;BME280;50072;50.678;13.938;2022-12-29T01:44:57;99204.53;;;1.94;97.52
63903;BME280;50072;50.678;13.938;2022-12-29T01:47:43;99215.88;;;1.71;97.65
63903;BME280;50072;50.678;13.938;2022-12-29T01:50:17;99199.19;;;1.73;98.84
63903;BME280;50072;50.678;13.938;2022-12-29T01:53:09;99188.63;;;1.72;99.20
63903;BME280;50072;50.678;13.938;2022-12-29T01:55:40;99201.88;;;1.84;98.79
63903;BME280;50072;50.678;13.938;2022-12-29T01:58:35;99189.53;;;1.77;98.52
63903;BME280;50072;50.678;13.938;2022-12-29T02:01:05;99193.09;;;1.88;98.46
63903;BME280;50072;50.678;13.938;2022-12-29T02:03:37;99199.25;;;1.87;99.25
63903;BME280;50072;50.678;13.938;2022-12-29T02:08:35;99188.69;;;1.84;99.04
63903;BME280;50072;50.678;13.938;2022-12-29T02:11:05;99166.66;;;1.79;100.00
63903;BME280;50072;50.678;13.938;2022-12-29T02:13:37;99200.09;;;1.88;99.89
63903;BME280;50072;50.678;13.938;2022-12-29T02:21:44;99179.91;;;1.93;99.88
63903;BME280;50072;50.678;13.938;2022-12-29T02:27:53;99171.13;;;1.96;100.00
63903;BME280;50072;50.678;13.938;2022-12-29T02:30:38;99161.44;;;2.01;99.54
63903;BME280;50072;50.678;13.938;2022-12-29T02:44:26;99161.44;;;1.99;99.58
63903;BME280;50072;50.678;13.938;2022-12-29T02:47:14;99150.91;;;2.05;99.53
63903;BME280;50072;50.678;13.938;2022-12-29T02:52:40;99148.25;;;2.05;99.74
63903;BME280;50072;50.678;13.938;2022-12-29T02:58:33;99144.72;;;1.93;100.00
63903;BME280;50072;50.678;13.938;2022-12-29T03:11:44;99139.41;;;1.74;100.00
63903;BME280;50072;50.678;13.938;2022-12-29T03:14:44;99135.88;;;1.72;100.00
63903;BME280;50072;50.678;13.938;2022-12-29T03:20:41;99142.06;;;2.05;100.00
63903;BME280;50072;50.678;13.938;2022-12-29T03:26:04;99138.56;;;1.98;100.00
63903;BME280;50072;50.678;13.938;2022-12-29T03:28:44;99136.78;;;1.79;100.00
63903;BME280;50072;50.678;13.938;2022-12-29T03:31:35;99137.66;;;1.73;100.00
63903;BME280;50072;50.678;13.938;2022-12-29T03:34:07;99119.19;;;1.82;100.00
63903;BME280;50072;50.678;13.938;2022-12-29T03:36:44;99125.34;;;1.89;100.00
63903;BME280;50072;50.678;13.938;2022-12-29T03:39:22;99114.78;;;1.90;100.00
63903;BME280;50072;50.678;13.938;2022-12-29T03:42:02;99107.78;;;1.96;100.00
63903;BME280;50072;50.678;13.938;2022-12-29T03:44:40;99111.28;;;1.88;100.00
63903;BME280;50072;50.678;13.938;2022-12-29T03:47:34;99103.38;;;1.99;100.00
63903;BME280;50072;50.678;13.938;2022-12-29T03:50:05;99093.69;;;1.92;100.00
63903;BME280;50072;50.678;13.938;2022-12-29T03:52:35;99084.91;;;1.87;100.00
63903;BME280;50072;50.678;13.938;2022-12-29T03:55:05;99088.41;;;1.81;100.00
63903;BME280;50072;50.678;13.938;2022-12-29T03:57:38;99093.66;;;1.70;100.00
63903;BME280;50072;50.678;13.938;2022-12-29T04:00:05;99085.75;;;1.69;100.00
63903;BME280;50072;50.678;13.938;2022-12-29T04:02:37;99080.50;;;1.86;100.00
63903;BME280;50072;50.678;13.938;2022-12-29T04:05:05;99090.19;;;1.85;100.00
63903;BME280;50072;50.678;13.938;2022-12-29T04:07:37;99093.69;;;1.94;100.00
63903;BME280;50072;50.678;13.938;2022-12-29T04:10:03;99089.28;;;1.85;100.00
63903;BME280;50072;50.678;13.938;2022-12-29T04:12:35;99095.47;;;2.05;100.00
63903;BME280;50072;50.678;13.938;2022-12-29T04:15:05;99091.06;;;2.04;100.00
63903;BME280;50072;50.678;13.938;2022-12-29T04:17:34;99094.56;;;2.06;99.97
63903;BME280;50072;50.678;13.938;2022-12-29T04:20:06;99098.09;;;2.01;100.00
63903;BME280;50072;50.678;13.938;2022-12-29T04:23:01;99089.28;;;2.05;100.00
63903;BME280;50072;50.678;13.938;2022-12-29T04:25:34;99098.97;;;2.06;100.00
63903;BME280;50072;50.678;13.938;2022-12-29T04:28:06;99110.41;;;1.97;100.00
63903;BME280;50072;50.678;13.938;2022-12-29T04:30:36;99100.75;;;2.04;100.00
63903;BME280;50072;50.678;13.938;2022-12-29T04:33:09;99093.69;;;2.09;100.00
63903;BME280;50072;50.678;13.938;2022-12-29T04:35:35;99100.72;;;2.19;100.00
63903;BME280;50072;50.678;13.938;2022-12-29T04:38:05;99086.66;;;2.08;100.00
63903;BME280;50072;50.678;13.938;2022-12-29T04:40:38;99087.53;;;2.12;100.00
63903;BME280;50072;50.678;13.938;2022-12-29T04:43:06;99097.22;;;2.17;100.00
63903;BME280;50072;50.678;13.938;2022-12-29T04:45:34;99085.75;;;2.12;100.00
63903;BME280;50072;50.678;13.938;2022-12-29T04:48:06;99083.13;;;2.24;100.00
63903;BME280;50072;50.678;13.938;2022-12-29T04:50:35;99085.78;;;2.07;100.00
63903;BME280;50072;50.678;13.938;2022-12-29T04:53:01;99090.19;;;2.22;100.00
63903;BME280;50072;50.678;13.938;2022-12-29T04:55:36;99084.00;;;2.17;100.00
63903;BME280;50072;50.678;13.938;2022-12-29T04:58:05;99080.50;;;2.24;100.00
63903;BME280;50072;50.678;13.938;2022-12-29T05:00:31;99084.91;;;2.22;100.00
63903;BME280;50072;50.678;13.938;2022-12-29T05:02:58;99084.88;;;2.19;100.00
63903;BME280;50072;50.678;13.938;2022-12-29T05:05:24;99077.84;;;2.24;100.00
63903;BME280;50072;50.678;13.938;2022-12-29T05:07:50;99072.56;;;2.21;100.00
63903;BME280;50072;50.678;13.938;2022-12-29T05:10:17;99075.22;;;2.21;100.00
63903;BME280;50072;50.678;13.938;2022-12-29T05:12:43;99084.00;;;2.30;100.00
63903;BME280;50072;50.678;13.938;2022-12-29T05:15:10;99078.72;;;2.25;100.00
63903;BME280;50072;50.678;13.938;2022-12-29T05:17:37;99077.84;;;2.23;100.00
63903;BME280;50072;50.678;13.938;2022-12-29T05:20:05;99076.97;;;2.32;100.00
63903;BME280;50072;50.678;13.938;2022-12-29T05:22:32;99079.56;;;2.38;100.00
63903;BME280;50072;50.678;13.938;2022-12-29T05:25:00;99083.09;;;2.32;100.00
63903;BME280;50072;50.678;13.938;2022-12-29T05:27:27;99085.75;;;2.29;100.00
63903;BME280;50072;50.678;13.938;2022-12-29T05:29:53;99078.72;;;2.33;100.00
63903;BME280;50072;50.678;13.938;2022-12-29T05:32:19;99090.16;;;2.35;100.00
63903;BME280;50072;50.678;13.938;2022-12-29T05:34:45;99097.19;;;2.42;100.00
63903;BME280;50072;50.678;13.938;2022-12-29T05:37:11;99073.44;;;2.36;100.00
63903;BME280;50072;50.678;13.938;2022-12-29T05:39:37;99089.28;;;2.48;100.00
63903;BME280;50072;50.678;13.938;2022-12-29T05:42:02;99091.88;;;2.45;100.00
63903;BME280;50072;50.678;13.938;2022-12-29T05:44:28;99075.19;;;2.43;100.00
63903;BME280;50072;50.678;13.938;2022-12-29T05:46:54;99080.47;;;2.40;100.00
63903;BME280;50072;50.678;13.938;2022-12-29T05:49:20;99082.22;;;2.46;100.00
63903;BME280;50072;50.678;13.938;2022-12-29T05:51:46;99085.72;;;2.46;100.00
63903;BME280;50072;50.678;13.938;2022-12-29T05:54:11;99084.84;;;2.38;100.00
63903;BME280;50072;50.678;13.938;2022-12-29T05:56:37;99078.72;;;2.37;100.00
63903;BME280;50072;50.678;13.938;2022-12-29T05:59:03;99079.59;;;2.41;100.00
63903;BME280;50072;50.678;13.938;2022-12-29T06:01:31;99073.41;;;2.50;100.00
63903;BME280;50072;50.678;13.938;2022-12-29T06:04:05;99069.88;;;2.49;100.00
63903;BME280;50072;50.678;13.938;2022-12-29T06:06:36;99072.53;;;2.55;100.00
63903;BME280;50072;50.678;13.938;2022-12-29T06:09:05;99056.66;;;2.60;100.00
63903;BME280;50072;50.678;13.938;2022-12-29T06:11:34;99060.19;;;2.65;100.00
63903;BME280;50072;50.678;13.938;2022-12-29T06:14:04;99061.06;;;2.61;100.00
63903;BME280;50072;50.678;13.938;2022-12-29T06:16:34;99069.81;;;2.68;100.00
63903;BME280;50072;50.678;13.938;2022-12-29T06:19:06;99073.34;;;2.74;100.00
63903;BME280;50072;50.678;13.938;2022-12-29T06:21:34;99068.97;;;2.67;100.00
63903;BME280;50072;50.678;13.938;2022-12-29T06:24:04;99074.22;;;2.70;100.00
63903;BME280;50072;50.678;13.938;2022-12-29T06:26:35;99072.50;;;2.71;100.00
63903;BME280;50072;50.678;13.938;2022-12-29T06:29:04;99079.53;;;2.56;100.00
63903;BME280;50072;50.678;13.938;2022-12-29T06:31:35;99069.84;;;2.65;100.00
63903;BME280;50072;50.678;13.938;2022-12-29T06:34:06;99087.50;;;2.58;100.00
63903;BME280;50072;50.678;13.938;2022-12-29T06:36:32;99084.84;;;2.58;100.00
63903;BME280;50072;50.678;13.938;2022-12-29T06:39:05;99073.38;;;2.59;100.00
63903;BME280;50072;50.678;13.938;2022-12-29T06:41:32;99068.97;;;2.66;100.00
63903;BME280;50072;50.678;13.938;2022-12-29T06:43:58;99061.00;;;2.73;100.00
63903;BME280;50072;50.678;13.938;2022-12-29T06:46:35;99076.88;;;2.76;100.00
63903;BME280;50072;50.678;13.938;2022-12-29T06:49:06;99077.78;;;2.71;100.00
63903;BME280;50072;50.678;13.938;2022-12-29T06:51:36;99083.06;;;2.71;100.00
63903;BME280;50072;50.678;13.938;2022-12-29T06:54:06;99075.97;;;2.79;100.00
63903;BME280;50072;50.678;13.938;2022-12-29T06:56:38;99076.88;;;2.70;100.00
63903;BME280;50072;50.678;13.938;2022-12-29T06:59:05;99076.00;;;2.73;100.00
63903;BME280;50072;50.678;13.938;2022-12-29T07:01:36;99083.06;;;2.71;100.00
63903;BME280;50072;50.678;13.938;2022-12-29T07:04:05;99083.88;;;2.88;100.00
63903;BME280;50072;50.678;13.938;2022-12-29T07:06:36;99081.22;;;2.88;100.00
63903;BME280;50072;50.678;13.938;2022-12-29T07:09:02;99079.44;;;2.90;100.00
63903;BME280;50072;50.678;13.938;2022-12-29T07:11:28;99084.72;;;2.97;100.00
63903;BME280;50072;50.678;13.938;2022-12-29T07:13:57;99079.50;;;2.83;100.00
63903;BME280;50072;50.678;13.938;2022-12-29T07:16:31;99069.78;;;2.89;100.00
63903;BME280;50072;50.678;13.938;2022-12-29T07:19:06;99066.28;;;2.83;100.00
63903;BME280;50072;50.678;13.938;2022-12-29T07:21:33;99071.59;;;2.76;100.00
63903;BME280;50072;50.678;13.938;2022-12-29T07:24:07;99074.22;;;2.78;100.00
63903;BME280;50072;50.678;13.938;2022-12-29T07:26:33;99076.00;;;2.62;100.00
63903;BME280;50072;50.678;13.938;2022-12-29T07:29:00;99072.53;;;2.46;100.00
63903;BME280;50072;50.678;13.938;2022-12-29T07:31:27;99083.09;;;2.41;100.00
63903;BME280;50072;50.678;13.938;2022-12-29T07:33:52;99089.28;;;2.48;100.00
63903;BME280;50072;50.678;13.938;2022-12-29T07:36:18;99088.31;;;2.66;100.00
63903;BME280;50072;50.678;13.938;2022-12-29T07:38:45;99076.88;;;2.69;100.00
63903;BME280;50072;50.678;13.938;2022-12-29T07:41:11;99064.53;;;2.79;100.00
63903;BME280;50072;50.678;13.938;2022-12-29T07:43:37;99053.06;;;2.75;100.00
63903;BME280;50072;50.678;13.938;2022-12-29T07:46:03;99054.84;;;2.74;100.00
63903;BME280;50072;50.678;13.938;2022-12-29T07:48:30;99040.78;;;2.63;100.00
63903;BME280;50072;50.678;13.938;2022-12-29T07:50:56;99036.41;;;2.56;100.00
63903;BME280;50072;50.678;13.938;2022-12-29T07:53:22;99030.28;;;2.52;100.00
63903;BME280;50072;50.678;13.938;2022-12-29T07:55:48;99035.56;;;2.52;100.00
63903;BME280;50072;50.678;13.938;2022-12-29T07:58:14;99044.38;;;2.42;100.00
63903;BME280;50072;50.678;13.938;2022-12-29T08:00:40;99032.03;;;2.50;100.00
63903;BME280;50072;50.678;13.938;2022-12-29T08:03:05;99049.63;;;2.54;100.00
63903;BME280;50072;50.678;13.938;2022-12-29T08:05:33;99057.53;;;2.59;100.00
63903;BME280;50072;50.678;13.938;2022-12-29T08:08:00;99071.63;;;2.63;100.00
63903;BME280;50072;50.678;13.938;2022-12-29T08:10:27;99076.91;;;2.53;100.00
63903;BME280;50072;50.678;13.938;2022-12-29T08:12:54;99072.56;;;2.34;100.00
63903;BME280;50072;50.678;13.938;2022-12-29T08:15:20;99090.16;;;2.38;100.00
63903;BME280;50072;50.678;13.938;2022-12-29T08:17:46;99090.16;;;2.41;100.00
63903;BME280;50072;50.678;13.938;2022-12-29T08:20:14;99084.88;;;2.47;100.00
63903;BME280;50072;50.678;13.938;2022-12-29T08:22:40;99087.50;;;2.58;100.00
63903;BME280;50072;50.678;13.938;2022-12-29T08:25:06;99091.00;;;2.57;100.00
63903;BME280;50072;50.678;13.938;2022-12-29T08:27:32;99094.47;;;2.74;100.00
63903;BME280;50072;50.678;13.938;2022-12-29T08:29:58;99083.88;;;2.81;100.00
63903;BME280;50072;50.678;13.938;2022-12-29T08:32:26;99098.00;;;2.78;100.00
63903;BME280;50072;50.678;13.938;2022-12-29T08:34:54;99101.50;;;2.80;100.00
63903;BME280;50072;50.678;13.938;2022-12-29T08:37:20;99105.88;;;2.97;100.00
63903;BME280;50072;50.678;13.938;2022-12-29T08:39:46;99104.13;;;2.96;100.00
63903;BME280;50072;50.678;13.938;2022-12-29T08:42:12;99106.69;;;3.06;100.00
63903;BME280;50072;50.678;13.938;2022-12-29T08:44:38;99107.50;;;3.27;100.00
63903;BME280;50072;50.678;13.938;2022-12-29T08:47:04;99112.69;;;3.47;100.00
63903;BME280;50072;50.678;13.938;2022-12-29T08:49:30;99108.19;;;3.61;100.00
63903;BME280;50072;50.678;13.938;2022-12-29T08:51:58;99112.56;;;3.75;100.00
63903;BME280;50072;50.678;13.938;2022-12-29T08:54:24;99123.06;;;3.84;100.00
63903;BME280;50072;50.678;13.938;2022-12-29T08:56:50;99119.47;;;3.91;100.00
63903;BME280;50072;50.678;13.938;2022-12-29T08:59:19;99129.06;;;4.11;100.00
63903;BME280;50072;50.678;13.938;2022-12-29T09:01:44;99121.94;;;4.16;99.95
63903;BME280;50072;50.678;13.938;2022-12-29T09:04:10;99122.78;;;4.21;100.00
63903;BME280;50072;50.678;13.938;2022-12-29T09:06:36;99115.63;;;4.32;99.78
63903;BME280;50072;50.678;13.938;2022-12-29T09:09:02;99118.28;;;4.32;99.68
63903;BME280;50072;50.678;13.938;2022-12-29T09:11:28;99109.41;;;4.37;99.54
63903;BME280;50072;50.678;13.938;2022-12-29T09:13:55;99109.34;;;4.43;99.12
63903;BME280;50072;50.678;13.938;2022-12-29T09:16:24;99110.34;;;4.32;98.81
63903;BME280;50072;50.678;13.938;2022-12-29T09:18:50;99112.84;;;4.48;98.89
63903;BME280;50072;50.678;13.938;2022-12-29T09:21:17;99108.44;;;4.47;98.56
63903;BME280;50072;50.678;13.938;2022-12-29T09:23:44;99113.81;;;4.39;98.43
63903;BME280;50072;50.678;13.938;2022-12-29T09:26:09;99122.47;;;4.58;98.72
63903;BME280;50072;50.678;13.938;2022-12-29T09:28:38;99104.72;;;4.66;98.15
63903;BME280;50072;50.678;13.938;2022-12-29T09:31:04;99102.00;;;4.71;98.82
63903;BME280;50072;50.678;13.938;2022-12-29T09:33:32;99104.53;;;4.85;98.80
63903;BME280;50072;50.678;13.938;2022-12-29T09:36:02;99104.34;;;5.00;98.07
63903;BME280;50072;50.678;13.938;2022-12-29T09:38:29;99104.34;;;5.00;98.08
63903;BME280;50072;50.678;13.938;2022-12-29T09:41:12;99105.25;;;4.98;97.61
63903;BME280;50072;50.678;13.938;2022-12-29T09:44:03;99105.91;;;5.17;97.64
63903;BME280;50072;50.678;13.938;2022-12-29T09:46:37;99106.94;;;5.07;97.72
63903;BME280;50072;50.678;13.938;2022-12-29T09:51:52;99105.63;;;5.39;98.26
63903;BME280;50072;50.678;13.938;2022-12-29T09:54:32;99107.28;;;5.49;98.25
63903;BME280;50072;50.678;13.938;2022-12-29T09:57:02;99101.56;;;5.77;98.59
63903;BME280;50072;50.678;13.938;2022-12-29T09:59:39;99103.00;;;6.02;97.36
63903;BME280;50072;50.678;13.938;2022-12-29T10:02:31;99108.59;;;6.40;96.68
63903;BME280;50072;50.678;13.938;2022-12-29T10:04:59;99098.28;;;6.71;94.08
63903;BME280;50072;50.678;13.938;2022-12-29T10:07:28;99092.47;;;6.96;94.69
63903;BME280;50072;50.678;13.938;2022-12-29T10:10:05;99093.88;;;7.56;93.03
63903;BME280;50072;50.678;13.938;2022-12-29T10:12:51;99095.31;;;8.10;90.83
63903;BME280;50072;50.678;13.938;2022-12-29T10:23:56;99062.38;;;9.45;85.03
63903;BME280;50072;50.678;13.938;2022-12-29T10:26:27;99075.56;;;9.79;84.44
63903;BME280;50072;50.678;13.938;2022-12-29T10:29:03;99075.00;;;10.25;79.58
63903;BME280;50072;50.678;13.938;2022-12-29T10:31:40;99062.78;;;10.44;79.12
63903;BME280;50072;50.678;13.938;2022-12-29T10:34:20;99057.81;;;10.59;78.44
63903;BME280;50072;50.678;13.938;2022-12-29T10:36:50;99063.16;;;10.59;76.55
63903;BME280;50072;50.678;13.938;2022-12-29T10:39:23;99057.13;;;10.53;76.43
63903;BME280;50072;50.678;13.938;2022-12-29T10:44:34;99055.59;;;9.91;77.16
63903;BME280;50072;50.678;13.938;2022-12-29T10:47:08;99055.31;;;10.00;78.20
63903;BME280;50072;50.678;13.938;2022-12-29T10:49:40;99050.63;;;10.34;77.07
63903;BME280;50072;50.678;13.938;2022-12-29T10:52:11;99047.34;;;10.52;77.01
63903;BME280;50072;50.678;13.938;2022-12-29T10:55:02;99049.50;;;10.41;74.61
63903;BME280;50072;50.678;13.938;2022-12-29T10:57:33;99044.03;;;10.17;73.89
63903;BME280;50072;50.678;13.938;2022-12-29T11:00:00;99043.72;;;10.00;74.82
63903;BME280;50072;50.678;13.938;2022-12-29T11:02:43;99035.47;;;9.79;75.95
63903;BME280;50072;50.678;13.938;2022-12-29T11:05:36;99012.56;;;9.72;73.50
63903;BME280;50072;50.678;13.938;2022-12-29T11:08:09;99030.06;;;9.53;72.86
63903;BME280;50072;50.678;13.938;2022-12-29T11:10:43;99021.44;;;9.14;76.20
63903;BME280;50072;50.678;13.938;2022-12-29T11:13:16;99016.63;;;8.96;80.13
63903;BME280;50072;50.678;13.938;2022-12-29T11:15:46;98999.22;;;8.83;80.83
63903;BME280;50072;50.678;13.938;2022-12-29T11:18:23;99006.38;;;8.49;82.67
63903;BME280;50072;50.678;13.938;2022-12-29T11:20:53;99015.06;;;8.23;82.37
63903;BME280;50072;50.678;13.938;2022-12-29T11:26:21;99013.28;;;8.22;83.51
63903;BME280;50072;50.678;13.938;2022-12-29T11:32:23;99002.63;;;8.22;83.96
63903;BME280;50072;50.678;13.938;2022-12-29T11:35:13;98999.97;;;8.22;83.55
63903;BME280;50072;50.678;13.938;2022-12-29T11:37:45;98996.81;;;8.40;83.81
63903;BME280;50072;50.678;13.938;2022-12-29T11:40:24;99001.56;;;8.62;86.01
63903;BME280;50072;50.678;13.938;2022-12-29T11:43:05;99000.38;;;8.74;86.33
63903;BME280;50072;50.678;13.938;2022-12-29T11:45:35;98991.84;;;8.61;85.64
63903;BME280;50072;50.678;13.938;2022-12-29T11:50:37;98979.81;;;9.07;83.48
63903;BME280;50072;50.678;13.938;2022-12-29T11:56:06;98994.13;;;9.05;83.39
63903;BME280;50072;50.678;13.938;2022-12-29T11:58:37;98990.31;;;9.13;83.96
63903;BME280;50072;50.678;13.938;2022-12-29T12:01:13;98987.00;;;9.05;84.33
63903;BME280;50072;50.678;13.938;2022-12-29T12:03:59;98980.56;;;9.12;84.52
63903;BME280;50072;50.678;13.938;2022-12-29T12:06:44;98974.22;;;9.17;83.69
63903;BME280;50072;50.678;13.938;2022-12-29T12:09:37;98974.75;;;9.56;81.91
63903;BME280;50072;50.678;13.938;2022-12-29T12:12:39;98963.38;;;9.78;81.69
63903;BME280;50072;50.678;13.938;2022-12-29T12:15:15;98953.09;;;9.65;80.27
63903;BME280;50072;50.678;13.938;2022-12-29T12:18:08;98966.50;;;9.64;78.77
63903;BME280;50072;50.678;13.938;2022-12-29T12:26:16;98958.88;;;10.32;79.48
63903;BME280;50072;50.678;13.938;2022-12-29T12:28:53;98956.78;;;10.15;75.74
63903;BME280;50072;50.678;13.938;2022-12-29T12:34:13;98951.50;;;10.13;76.34
63903;BME280;50072;50.678;13.938;2022-12-29T12:42:40;98948.94;;;9.83;76.05
63903;BME280;50072;50.678;13.938;2022-12-29T12:59:21;98946.78;;;9.68;74.70
63903;BME280;50072;50.678;13.938;2022-12-29T13:02:09;98942.19;;;9.72;73.61
63903;BME280;50072;50.678;13.938;2022-12-29T13:10:26;98934.06;;;9.20;77.63
63903;BME280;50072;50.678;13.938;2022-12-29T13:13:27;98936.44;;;9.29;79.53
63903;BME280;50072;50.678;13.938;2022-12-29T13:17:13;98943.00;;;9.19;79.69
63903;BME280;50072;50.678;13.938;2022-12-29T13:21:46;98939.97;;;9.01;79.27
63903;BME280;50072;50.678;13.938;2022-12-29T13:27:32;98932.31;;;9.19;80.65
63903;BME280;50072;50.678;13.938;2022-12-29T13:32:55;98937.78;;;8.86;83.75
63903;BME280;50072;50.678;13.938;2022-12-29T13:40:24;98944.41;;;8.72;85.37
63903;BME280;50072;50.678;13.938;2022-12-29T13:42:52;98946.41;;;8.64;86.41
63903;BME280;50072;50.678;13.938;2022-12-29T13:45:26;98938.94;;;8.45;86.63
63903;BME280;50072;50.678;13.938;2022-12-29T13:48:02;98935.25;;;8.50;86.30
63903;BME280;50072;50.678;13.938;2022-12-29T13:50:36;98939.66;;;8.51;86.35
63903;BME280;50072;50.678;13.938;2022-12-29T13:56:06;98950.56;;;8.41;84.99
63903;BME280;50072;50.678;13.938;2022-12-29T14:01:35;98942.66;;;8.38;85.58
63903;BME280;50072;50.678;13.938;2022-12-29T14:04:12;98958.16;;;8.24;85.80
63903;BME280;50072;50.678;13.938;2022-12-29T14:06:39;98950.22;;;8.22;87.22
63903;BME280;50072;50.678;13.938;2022-12-29T14:09:34;98958.16;;;8.24;87.55
63903;BME280;50072;50.678;13.938;2022-12-29T14:12:19;98953.06;;;8.15;86.26
63903;BME280;50072;50.678;13.938;2022-12-29T14:14:47;98956.81;;;8.07;87.50
63903;BME280;50072;50.678;13.938;2022-12-29T14:17:19;98963.69;;;8.16;87.88
63903;BME280;50072;50.678;13.938;2022-12-29T14:19:46;98952.25;;;8.12;88.71
63903;BME280;50072;50.678;13.938;2022-12-29T14:22:23;98940.72;;;8.10;87.96
63903;BME280;50072;50.678;13.938;2022-12-29T14:24:50;98942.50;;;8.11;89.06
63903;BME280;50072;50.678;13.938;2022-12-29T14:27:42;98944.66;;;7.97;90.05
63903;BME280;50072;50.678;13.938;2022-12-29T14:30:01;98961.75;;;7.88;90.69
63903;BME280;50072;50.678;13.938;2022-12-29T14:34:54;98960.63;;;7.97;89.99
63903;BME280;50072;50.678;13.938;2022-12-29T14:40:04;98965.94;;;7.63;91.22
63903;BME280;50072;50.678;13.938;2022-12-29T14:42:32;98960.72;;;7.58;91.51
63903;BME280;50072;50.678;13.938;2022-12-29T14:45:02;98956.97;;;7.65;90.91
63903;BME280;50072;50.678;13.938;2022-12-29T14:47:35;98966.19;;;7.52;90.62
63903;BME280;50072;50.678;13.938;2022-12-29T14:50:10;98969.91;;;7.45;91.19
63903;BME280;50072;50.678;13.938;2022-12-29T14:52:51;98977.81;;;7.48;90.79
63903;BME280;50072;50.678;13.938;2022-12-29T14:55:41;98970.63;;;7.53;90.82
63903;BME280;50072;50.678;13.938;2022-12-29T14:58:18;98976.06;;;7.47;90.75
63903;BME280;50072;50.678;13.938;2022-12-29T15:00:46;98974.41;;;7.42;91.08
63903;BME280;50072;50.678;13.938;2022-12-29T15:05:45;98965.50;;;7.43;92.11
63903;BME280;50072;50.678;13.938;2022-12-29T15:08:13;98965.56;;;7.40;92.12
63903;BME280;50072;50.678;13.938;2022-12-29T15:10:53;98966.53;;;7.36;92.48
63903;BME280;50072;50.678;13.938;2022-12-29T15:13:32;98972.56;;;7.45;92.97
63903;BME280;50072;50.678;13.938;2022-12-29T15:15:58;98956.53;;;7.48;92.50
63903;BME280;50072;50.678;13.938;2022-12-29T15:18:26;98962.81;;;7.43;92.71
63903;BME280;50072;50.678;13.938;2022-12-29T15:20:59;98958.44;;;7.42;92.75
63903;BME280;50072;50.678;13.938;2022-12-29T15:23:27;98945.38;;;7.32;92.77
63903;BME280;50072;50.678;13.938;2022-12-29T15:25:57;98951.22;;;7.08;94.05
63903;BME280;50072;50.678;13.938;2022-12-29T15:28:25;98951.63;;;6.90;94.13
63903;BME280;50072;50.678;13.938;2022-12-29T15:30:57;98951.00;;;6.79;94.30
63903;BME280;50072;50.678;13.938;2022-12-29T15:33:29;98953.09;;;6.61;95.28
63903;BME280;50072;50.678;13.938;2022-12-29T15:36:02;98961.44;;;6.44;96.46
63903;BME280;50072;50.678;13.938;2022-12-29T15:38:30;98965.00;;;6.43;96.63
63903;BME280;50072;50.678;13.938;2022-12-29T15:41:04;98967.78;;;6.35;96.43